LA HONDA (LAH)

Elevation: 425' · SAN GREGORIO CR basin · Operator: CAL FIRE

Query executed Thursday at 15:17:11   clock

Provisional data, subject to change.
Select a sensor type for a plot of data.

Earlier

Date   /   Time   RAIN     TEMP     REL HUM     FUEL MS     FUEL TP     WIND SP     WIND DR     PEAK WS     PEAK WD     SOLAR R     BAT VOL    
(PDT)INCHES   DEG F   %   %   DEG F   MPH   DEG   MPH   DEG   W/M^2   VOLTS  
07/27/2016 15:00 0.06 89 31 6 115 4 256 7 315 875.00 13.2
07/27/2016 16:00 0.06 89 30 5 111 3 250 8 236 760.00 13.2
07/27/2016 17:00 0.06 89 30 5 110 3 247 7 191 616.00 13.3
07/27/2016 18:00 0.06 80 40 4 92 3 263 6 309 443.00 13.4
07/27/2016 19:00 0.06 69 55 5 71 3 245 6 230 85.00 13.9
07/27/2016 20:00 0.06 63 65 5 63 2 242 4 245 50.00 13.3
07/27/2016 21:00 0.06 58 79 5 56 2 96 4 228 4.00 13.2
07/27/2016 22:00 0.06 58 78 5 55 1 275 4 100 0.00 13.1
07/27/2016 23:00 0.06 54 86 5 52 0 220 2 283 0.00 13.0
07/28/2016 00:00 0.06 53 89 6 51 0 241 0 0 0.00 13.0
07/28/2016 01:00 0.06 52 88 6 50 0 279 2 71 0.00 13.0
07/28/2016 02:00 0.06 52 91 7 49 1 94 3 93 0.00 12.9
07/28/2016 03:00 0.06 50 90 8 49 1 300 4 94 0.00 12.9
07/28/2016 04:00 0.06 49 96 10 49 0 225 2 226 0.00 12.9
07/28/2016 05:00 0.06 50 95 10 47 1 84 3 109 0.00 12.9
07/28/2016 06:00 0.06 49 95 12 46 0 76 2 74 0.00 12.8
07/28/2016 07:00 0.06 49 94 13 47 3 87 4 87 12.00 12.8
07/28/2016 08:00 0.06 60 77 15 56 1 203 3 82 198.00 13.2
07/28/2016 09:00 0.06 68 63 15 68 2 264 4 245 377.00 13.7
07/28/2016 10:00 0.06 72 54 12 80 4 239 6 228 556.00 13.6
07/28/2016 11:00 0.06 77 49 10 89 4 239 7 236 712.00 13.5
07/28/2016 12:00 0.06 85 41 9 100 3 251 7 203 834.00 13.4
07/28/2016 13:00 0.06 87 36 9 104 3 258 8 223 903.00 13.3
07/28/2016 14:00 0.06 84 38 7 109 4 259 8 249 916.00 13.3
07/28/2016 15:00 0.06 84 40 6 111 4 253 7 250 876.00 13.3

Later | Latest

Warning! This data is preliminary and subject to revision.

Show LAH Map | 24 Hours LAH Data | Plot all LAH Sensors | Daily LAH Data | LAH Info